sensor_id;sensor_type;location;lat;lon;timestamp;temperature;humidity
1996;DHT22;38556;47.068;15.408;2022-09-17T00:00:25;15.20;99.90
1996;DHT22;38556;47.068;15.408;2022-09-17T00:02:53;15.10;99.90
1996;DHT22;38556;47.068;15.408;2022-09-17T00:05:21;15.10;99.90
1996;DHT22;38556;47.068;15.408;2022-09-17T00:07:50;14.90;99.90
1996;DHT22;38556;47.068;15.408;2022-09-17T00:10:18;14.80;99.90
1996;DHT22;38556;47.068;15.408;2022-09-17T00:15:14;14.50;99.90
1996;DHT22;38556;47.068;15.408;2022-09-17T00:17:41;14.60;99.90
1996;DHT22;38556;47.068;15.408;2022-09-17T00:20:10;14.60;99.90
1996;DHT22;38556;47.068;15.408;2022-09-17T00:22:38;14.70;99.90
1996;DHT22;38556;47.068;15.408;2022-09-17T00:25:06;14.80;99.90
1996;DHT22;38556;47.068;15.408;2022-09-17T00:27:34;14.80;99.90
1996;DHT22;38556;47.068;15.408;2022-09-17T00:30:02;14.80;99.90
1996;DHT22;38556;47.068;15.408;2022-09-17T00:32:29;14.90;99.90
1996;DHT22;38556;47.068;15.408;2022-09-17T00:34:57;14.80;99.90
1996;DHT22;38556;47.068;15.408;2022-09-17T00:37:25;14.80;99.90
1996;DHT22;38556;47.068;15.408;2022-09-17T00:39:53;14.70;99.90
1996;DHT22;38556;47.068;15.408;2022-09-17T00:42:21;14.80;99.90
1996;DHT22;38556;47.068;15.408;2022-09-17T00:44:51;14.90;99.90
1996;DHT22;38556;47.068;15.408;2022-09-17T00:47:22;14.90;99.90
1996;DHT22;38556;47.068;15.408;2022-09-17T00:49:53;14.80;99.90
1996;DHT22;38556;47.068;15.408;2022-09-17T00:52:27;14.70;99.90
1996;DHT22;38556;47.068;15.408;2022-09-17T00:55:03;14.70;99.90
1996;DHT22;38556;47.068;15.408;2022-09-17T00:57:32;14.60;99.90
1996;DHT22;38556;47.068;15.408;2022-09-17T00:59:59;14.70;99.90
1996;DHT22;38556;47.068;15.408;2022-09-17T01:02:27;14.80;99.90
1996;DHT22;38556;47.068;15.408;2022-09-17T01:04:55;14.80;99.90
1996;DHT22;38556;47.068;15.408;2022-09-17T01:07:38;14.80;99.90
1996;DHT22;38556;47.068;15.408;2022-09-17T01:10:16;14.70;99.90
1996;DHT22;38556;47.068;15.408;2022-09-17T01:13:00;14.60;99.90
1996;DHT22;38556;47.068;15.408;2022-09-17T01:15:36;14.70;99.90
1996;DHT22;38556;47.068;15.408;2022-09-17T01:18:20;14.70;99.90
1996;DHT22;38556;47.068;15.408;2022-09-17T01:33:41;14.90;99.90
1996;DHT22;38556;47.068;15.408;2022-09-17T01:36:20;14.90;99.90
1996;DHT22;38556;47.068;15.408;2022-09-17T01:38:53;14.90;99.90
1996;DHT22;38556;47.068;15.408;2022-09-17T01:41:29;14.90;99.90
1996;DHT22;38556;47.068;15.408;2022-09-17T01:44:03;15.00;99.90
1996;DHT22;38556;47.068;15.408;2022-09-17T01:46:37;15.00;99.90
1996;DHT22;38556;47.068;15.408;2022-09-17T01:49:07;14.80;99.90
1996;DHT22;38556;47.068;15.408;2022-09-17T01:51:38;14.90;99.90
1996;DHT22;38556;47.068;15.408;2022-09-17T01:54:13;15.00;99.90
1996;DHT22;38556;47.068;15.408;2022-09-17T01:56:44;15.00;99.90
1996;DHT22;38556;47.068;15.408;2022-09-17T01:59:17;14.90;99.90
1996;DHT22;38556;47.068;15.408;2022-09-17T02:01:50;14.90;99.90
1996;DHT22;38556;47.068;15.408;2022-09-17T02:04:20;15.00;99.90
1996;DHT22;38556;47.068;15.408;2022-09-17T02:06:54;15.00;99.90
1996;DHT22;38556;47.068;15.408;2022-09-17T02:09:26;15.00;99.90
1996;DHT22;38556;47.068;15.408;2022-09-17T02:11:57;15.00;99.90
1996;DHT22;38556;47.068;15.408;2022-09-17T02:14:29;15.00;99.90
1996;DHT22;38556;47.068;15.408;2022-09-17T02:17:03;14.90;99.90
1996;DHT22;38556;47.068;15.408;2022-09-17T02:19:34;14.30;99.90
1996;DHT22;38556;47.068;15.408;2022-09-17T02:22:12;14.30;99.90
1996;DHT22;38556;47.068;15.408;2022-09-17T02:24:44;14.40;99.90
1996;DHT22;38556;47.068;15.408;2022-09-17T02:27:18;14.60;99.90
1996;DHT22;38556;47.068;15.408;2022-09-17T02:29:47;14.50;99.90
1996;DHT22;38556;47.068;15.408;2022-09-17T02:32:16;14.60;99.90
1996;DHT22;38556;47.068;15.408;2022-09-17T02:34:43;14.60;99.90
1996;DHT22;38556;47.068;15.408;2022-09-17T02:37:10;14.70;99.90
1996;DHT22;38556;47.068;15.408;2022-09-17T02:39:38;14.70;99.90
1996;DHT22;38556;47.068;15.408;2022-09-17T02:42:14;14.70;99.90
1996;DHT22;38556;47.068;15.408;2022-09-17T02:44:52;14.80;99.90
1996;DHT22;38556;47.068;15.408;2022-09-17T02:47:55;14.80;99.90
1996;DHT22;38556;47.068;15.408;2022-09-17T02:50:33;14.90;99.90
1996;DHT22;38556;47.068;15.408;2022-09-17T02:53:13;14.90;99.90
1996;DHT22;38556;47.068;15.408;2022-09-17T02:55:49;14.90;99.90
1996;DHT22;38556;47.068;15.408;2022-09-17T02:58:24;14.70;99.90
1996;DHT22;38556;47.068;15.408;2022-09-17T03:00:54;14.80;99.90
1996;DHT22;38556;47.068;15.408;2022-09-17T03:03:29;14.70;99.90
1996;DHT22;38556;47.068;15.408;2022-09-17T03:05:59;14.80;99.90
1996;DHT22;38556;47.068;15.408;2022-09-17T03:08:28;14.80;99.90
1996;DHT22;38556;47.068;15.408;2022-09-17T03:10:56;14.80;99.90
1996;DHT22;38556;47.068;15.408;2022-09-17T03:13:23;14.90;99.90
1996;DHT22;38556;47.068;15.408;2022-09-17T03:15:51;14.90;99.90
1996;DHT22;38556;47.068;15.408;2022-09-17T03:18:18;14.90;99.90
1996;DHT22;38556;47.068;15.408;2022-09-17T03:20:46;14.90;99.90
1996;DHT22;38556;47.068;15.408;2022-09-17T03:23:13;14.90;99.90
1996;DHT22;38556;47.068;15.408;2022-09-17T03:25:41;14.90;99.90
1996;DHT22;38556;47.068;15.408;2022-09-17T03:28:08;15.00;99.90
1996;DHT22;38556;47.068;15.408;2022-09-17T03:30:35;15.00;99.90
1996;DHT22;38556;47.068;15.408;2022-09-17T03:33:03;15.00;99.90
1996;DHT22;38556;47.068;15.408;2022-09-17T03:35:30;15.00;99.90
1996;DHT22;38556;47.068;15.408;2022-09-17T03:37:58;15.00;99.90
1996;DHT22;38556;47.068;15.408;2022-09-17T03:40:26;14.90;99.90
1996;DHT22;38556;47.068;15.408;2022-09-17T03:42:54;14.80;99.90
1996;DHT22;38556;47.068;15.408;2022-09-17T03:45:21;14.80;99.90
1996;DHT22;38556;47.068;15.408;2022-09-17T03:47:48;14.90;99.90
1996;DHT22;38556;47.068;15.408;2022-09-17T03:50:15;14.90;99.90
1996;DHT22;38556;47.068;15.408;2022-09-17T03:52:43;14.90;99.90
1996;DHT22;38556;47.068;15.408;2022-09-17T03:55:12;14.90;99.90
1996;DHT22;38556;47.068;15.408;2022-09-17T03:57:41;14.80;99.90
1996;DHT22;38556;47.068;15.408;2022-09-17T04:00:09;14.70;99.90
1996;DHT22;38556;47.068;15.408;2022-09-17T04:02:40;14.30;99.90
1996;DHT22;38556;47.068;15.408;2022-09-17T04:05:08;14.00;99.90
1996;DHT22;38556;47.068;15.408;2022-09-17T04:10:04;13.90;99.90
1996;DHT22;38556;47.068;15.408;2022-09-17T04:12:33;14.10;99.90
1996;DHT22;38556;47.068;15.408;2022-09-17T04:15:00;14.20;99.90
1996;DHT22;38556;47.068;15.408;2022-09-17T04:17:27;14.00;99.90
1996;DHT22;38556;47.068;15.408;2022-09-17T04:19:54;14.20;99.90
1996;DHT22;38556;47.068;15.408;2022-09-17T04:22:22;14.20;99.90
1996;DHT22;38556;47.068;15.408;2022-09-17T04:27:17;14.40;99.90
1996;DHT22;38556;47.068;15.408;2022-09-17T04:29:46;14.50;99.90
1996;DHT22;38556;47.068;15.408;2022-09-17T04:32:13;14.50;99.90
1996;DHT22;38556;47.068;15.408;2022-09-17T04:34:41;14.50;99.90
1996;DHT22;38556;47.068;15.408;2022-09-17T04:37:08;14.50;99.90
1996;DHT22;38556;47.068;15.408;2022-09-17T04:39:35;14.60;99.90
1996;DHT22;38556;47.068;15.408;2022-09-17T04:42:03;14.60;99.90
1996;DHT22;38556;47.068;15.408;2022-09-17T04:44:30;14.50;99.90
1996;DHT22;38556;47.068;15.408;2022-09-17T04:46:59;14.60;99.90
1996;DHT22;38556;47.068;15.408;2022-09-17T04:49:26;14.60;99.90
1996;DHT22;38556;47.068;15.408;2022-09-17T04:51:54;14.60;99.90
1996;DHT22;38556;47.068;15.408;2022-09-17T04:54:22;14.60;99.90
1996;DHT22;38556;47.068;15.408;2022-09-17T04:56:49;14.70;99.90
1996;DHT22;38556;47.068;15.408;2022-09-17T04:59:16;14.60;99.90
1996;DHT22;38556;47.068;15.408;2022-09-17T05:01:44;14.60;99.90
1996;DHT22;38556;47.068;15.408;2022-09-17T05:04:12;14.10;99.90
1996;DHT22;38556;47.068;15.408;2022-09-17T05:06:40;14.20;99.90
1996;DHT22;38556;47.068;15.408;2022-09-17T05:09:07;14.30;99.90
1996;DHT22;38556;47.068;15.408;2022-09-17T05:11:35;14.30;99.90
1996;DHT22;38556;47.068;15.408;2022-09-17T05:14:02;14.30;99.90
1996;DHT22;38556;47.068;15.408;2022-09-17T05:16:29;14.20;99.90
1996;DHT22;38556;47.068;15.408;2022-09-17T05:18:56;14.20;99.90
1996;DHT22;38556;47.068;15.408;2022-09-17T05:21:25;14.00;99.90
1996;DHT22;38556;47.068;15.408;2022-09-17T05:23:52;14.00;99.90
1996;DHT22;38556;47.068;15.408;2022-09-17T05:26:19;14.00;99.90
1996;DHT22;38556;47.068;15.408;2022-09-17T05:28:47;14.00;99.90
1996;DHT22;38556;47.068;15.408;2022-09-17T05:31:14;13.90;99.90
1996;DHT22;38556;47.068;15.408;2022-09-17T05:33:41;14.10;99.90
1996;DHT22;38556;47.068;15.408;2022-09-17T05:36:08;14.30;99.90
1996;DHT22;38556;47.068;15.408;2022-09-17T05:38:37;14.20;99.90
1996;DHT22;38556;47.068;15.408;2022-09-17T05:41:05;14.20;99.90
1996;DHT22;38556;47.068;15.408;2022-09-17T05:43:33;14.20;99.90
1996;DHT22;38556;47.068;15.408;2022-09-17T05:46:01;14.20;99.90
1996;DHT22;38556;47.068;15.408;2022-09-17T05:48:29;14.40;99.90
1996;DHT22;38556;47.068;15.408;2022-09-17T05:50:56;14.40;99.90
1996;DHT22;38556;47.068;15.408;2022-09-17T05:53:23;14.50;99.90
1996;DHT22;38556;47.068;15.408;2022-09-17T05:55:55;14.50;99.90
1996;DHT22;38556;47.068;15.408;2022-09-17T05:58:22;14.50;99.90
1996;DHT22;38556;47.068;15.408;2022-09-17T06:00:50;14.50;99.90
1996;DHT22;38556;47.068;15.408;2022-09-17T06:03:18;14.50;99.90
1996;DHT22;38556;47.068;15.408;2022-09-17T06:05:52;14.50;99.90
1996;DHT22;38556;47.068;15.408;2022-09-17T06:08:20;14.50;99.90
1996;DHT22;38556;47.068;15.408;2022-09-17T06:10:47;14.40;99.90
1996;DHT22;38556;47.068;15.408;2022-09-17T06:13:16;14.50;99.90
1996;DHT22;38556;47.068;15.408;2022-09-17T06:15:49;14.50;99.90
1996;DHT22;38556;47.068;15.408;2022-09-17T06:18:17;14.60;99.90
1996;DHT22;38556;47.068;15.408;2022-09-17T06:20:51;14.60;99.90
1996;DHT22;38556;47.068;15.408;2022-09-17T06:23:19;14.60;99.90
1996;DHT22;38556;47.068;15.408;2022-09-17T06:25:50;14.60;99.90
1996;DHT22;38556;47.068;15.408;2022-09-17T06:28:20;14.70;99.90
1996;DHT22;38556;47.068;15.408;2022-09-17T06:30:47;14.70;99.90
1996;DHT22;38556;47.068;15.408;2022-09-17T06:33:18;14.80;99.90
1996;DHT22;38556;47.068;15.408;2022-09-17T06:35:45;14.80;99.90
1996;DHT22;38556;47.068;15.408;2022-09-17T06:38:12;14.70;99.90
1996;DHT22;38556;47.068;15.408;2022-09-17T06:40:40;14.60;99.90
1996;DHT22;38556;47.068;15.408;2022-09-17T06:43:07;14.60;99.90
1996;DHT22;38556;47.068;15.408;2022-09-17T06:45:35;14.60;99.90
1996;DHT22;38556;47.068;15.408;2022-09-17T06:48:05;14.50;99.90
1996;DHT22;38556;47.068;15.408;2022-09-17T06:50:32;14.50;99.90
1996;DHT22;38556;47.068;15.408;2022-09-17T06:52:59;14.40;99.90
1996;DHT22;38556;47.068;15.408;2022-09-17T06:55:26;14.40;99.90
1996;DHT22;38556;47.068;15.408;2022-09-17T06:57:57;14.40;99.90
1996;DHT22;38556;47.068;15.408;2022-09-17T07:00:24;14.60;99.90
1996;DHT22;38556;47.068;15.408;2022-09-17T07:02:57;14.60;99.90
1996;DHT22;38556;47.068;15.408;2022-09-17T07:05:26;14.60;99.90
1996;DHT22;38556;47.068;15.408;2022-09-17T07:07:55;14.70;99.90
1996;DHT22;38556;47.068;15.408;2022-09-17T07:10:22;14.70;99.90
1996;DHT22;38556;47.068;15.408;2022-09-17T07:12:49;14.70;99.90
1996;DHT22;38556;47.068;15.408;2022-09-17T07:15:16;14.80;99.90
1996;DHT22;38556;47.068;15.408;2022-09-17T07:17:44;14.80;99.90
1996;DHT22;38556;47.068;15.408;2022-09-17T07:20:13;14.90;99.90
1996;DHT22;38556;47.068;15.408;2022-09-17T07:22:41;14.90;99.90
1996;DHT22;38556;47.068;15.408;2022-09-17T07:25:09;14.80;99.90
1996;DHT22;38556;47.068;15.408;2022-09-17T07:27:36;14.30;99.90
1996;DHT22;38556;47.068;15.408;2022-09-17T07:30:05;14.20;99.90
1996;DHT22;38556;47.068;15.408;2022-09-17T07:32:32;14.20;99.90
1996;DHT22;38556;47.068;15.408;2022-09-17T07:34:59;14.20;99.90
1996;DHT22;38556;47.068;15.408;2022-09-17T07:37:28;14.30;99.90
1996;DHT22;38556;47.068;15.408;2022-09-17T07:39:55;14.00;99.90
1996;DHT22;38556;47.068;15.408;2022-09-17T07:42:22;13.80;99.90
1996;DHT22;38556;47.068;15.408;2022-09-17T07:44:50;13.60;99.90
1996;DHT22;38556;47.068;15.408;2022-09-17T07:47:17;13.90;99.90
1996;DHT22;38556;47.068;15.408;2022-09-17T07:49:45;14.10;99.90
1996;DHT22;38556;47.068;15.408;2022-09-17T07:52:12;14.30;99.90
1996;DHT22;38556;47.068;15.408;2022-09-17T07:54:40;14.30;99.90
1996;DHT22;38556;47.068;15.408;2022-09-17T07:57:08;14.40;99.90
1996;DHT22;38556;47.068;15.408;2022-09-17T08:02:03;14.40;99.90
1996;DHT22;38556;47.068;15.408;2022-09-17T08:04:29;14.40;99.90
1996;DHT22;38556;47.068;15.408;2022-09-17T08:06:58;14.60;99.90
1996;DHT22;38556;47.068;15.408;2022-09-17T08:09:25;14.60;99.90
1996;DHT22;38556;47.068;15.408;2022-09-17T08:11:54;14.50;99.90
1996;DHT22;38556;47.068;15.408;2022-09-17T08:14:21;14.50;99.90
1996;DHT22;38556;47.068;15.408;2022-09-17T08:16:48;14.40;99.90
1996;DHT22;38556;47.068;15.408;2022-09-17T08:19:15;14.50;99.90
1996;DHT22;38556;47.068;15.408;2022-09-17T08:21:43;14.60;99.90
1996;DHT22;38556;47.068;15.408;2022-09-17T08:24:11;14.60;99.90
1996;DHT22;38556;47.068;15.408;2022-09-17T08:26:38;14.50;99.90
1996;DHT22;38556;47.068;15.408;2022-09-17T08:29:08;14.50;99.90
1996;DHT22;38556;47.068;15.408;2022-09-17T08:31:35;14.60;99.90
1996;DHT22;38556;47.068;15.408;2022-09-17T08:34:06;14.40;99.90
1996;DHT22;38556;47.068;15.408;2022-09-17T08:36:34;14.30;99.90
1996;DHT22;38556;47.068;15.408;2022-09-17T08:41:36;14.40;99.90
1996;DHT22;38556;47.068;15.408;2022-09-17T08:44:15;14.30;99.90
1996;DHT22;38556;47.068;15.408;2022-09-17T08:46:46;14.30;99.90
1996;DHT22;38556;47.068;15.408;2022-09-17T08:49:23;14.20;99.90
1996;DHT22;38556;47.068;15.408;2022-09-17T08:52:02;14.20;99.90
1996;DHT22;38556;47.068;15.408;2022-09-17T08:54:35;14.20;99.90
1996;DHT22;38556;47.068;15.408;2022-09-17T08:57:15;14.30;99.90
1996;DHT22;38556;47.068;15.408;2022-09-17T08:59:50;14.50;99.90
1996;DHT22;38556;47.068;15.408;2022-09-17T09:02:31;14.50;99.90
1996;DHT22;38556;47.068;15.408;2022-09-17T09:05:09;14.60;99.90
1996;DHT22;38556;47.068;15.408;2022-09-17T09:07:43;14.60;99.90
1996;DHT22;38556;47.068;15.408;2022-09-17T09:10:18;14.70;99.90
1996;DHT22;38556;47.068;15.408;2022-09-17T09:12:48;14.60;99.90
1996;DHT22;38556;47.068;15.408;2022-09-17T09:15:34;14.50;99.90
1996;DHT22;38556;47.068;15.408;2022-09-17T09:18:12;14.50;99.90
1996;DHT22;38556;47.068;15.408;2022-09-17T09:20:48;14.50;99.90
1996;DHT22;38556;47.068;15.408;2022-09-17T09:23:19;14.50;99.90
1996;DHT22;38556;47.068;15.408;2022-09-17T09:25:55;14.60;99.90
1996;DHT22;38556;47.068;15.408;2022-09-17T09:28:45;14.40;99.90
1996;DHT22;38556;47.068;15.408;2022-09-17T09:31:27;14.30;99.90
1996;DHT22;38556;47.068;15.408;2022-09-17T09:34:01;14.30;99.90
1996;DHT22;38556;47.068;15.408;2022-09-17T09:36:29;14.40;99.90
1996;DHT22;38556;47.068;15.408;2022-09-17T09:39:02;14.50;99.90
1996;DHT22;38556;47.068;15.408;2022-09-17T09:41:33;14.50;99.90
1996;DHT22;38556;47.068;15.408;2022-09-17T09:44:04;14.40;99.90
1996;DHT22;38556;47.068;15.408;2022-09-17T09:46:47;14.10;99.90
1996;DHT22;38556;47.068;15.408;2022-09-17T09:49:29;14.30;99.90
1996;DHT22;38556;47.068;15.408;2022-09-17T09:52:10;14.20;99.90
1996;DHT22;38556;47.068;15.408;2022-09-17T09:54:53;14.30;99.90
1996;DHT22;38556;47.068;15.408;2022-09-17T09:57:24;14.40;99.90
1996;DHT22;38556;47.068;15.408;2022-09-17T10:00:28;14.40;99.90
1996;DHT22;38556;47.068;15.408;2022-09-17T10:03:02;13.90;99.90
1996;DHT22;38556;47.068;15.408;2022-09-17T10:05:31;13.90;99.90
1996;DHT22;38556;47.068;15.408;2022-09-17T10:07:58;14.10;99.90
1996;DHT22;38556;47.068;15.408;2022-09-17T10:10:25;14.50;99.90
1996;DHT22;38556;47.068;15.408;2022-09-17T10:13:05;14.50;99.90
1996;DHT22;38556;47.068;15.408;2022-09-17T10:15:33;14.60;99.90
1996;DHT22;38556;47.068;15.408;2022-09-17T10:18:18;14.60;99.90
1996;DHT22;38556;47.068;15.408;2022-09-17T10:20:51;14.50;99.90
1996;DHT22;38556;47.068;15.408;2022-09-17T10:23:19;14.60;99.90
1996;DHT22;38556;47.068;15.408;2022-09-17T10:25:48;14.40;99.90
1996;DHT22;38556;47.068;15.408;2022-09-17T10:28:32;14.30;99.90
1996;DHT22;38556;47.068;15.408;2022-09-17T10:31:02;14.20;99.90
1996;DHT22;38556;47.068;15.408;2022-09-17T10:33:33;14.20;99.90
1996;DHT22;38556;47.068;15.408;2022-09-17T10:36:03;14.30;99.90
1996;DHT22;38556;47.068;15.408;2022-09-17T10:41:17;14.50;99.90
1996;DHT22;38556;47.068;15.408;2022-09-17T10:43:46;14.40;99.90
1996;DHT22;38556;47.068;15.408;2022-09-17T10:46:17;14.60;99.90
1996;DHT22;38556;47.068;15.408;2022-09-17T10:48:56;14.20;99.90
1996;DHT22;38556;47.068;15.408;2022-09-17T10:51:25;14.10;99.90
1996;DHT22;38556;47.068;15.408;2022-09-17T10:54:13;13.80;99.90
1996;DHT22;38556;47.068;15.408;2022-09-17T10:56:45;13.70;99.90
1996;DHT22;38556;47.068;15.408;2022-09-17T10:59:38;13.70;99.90
1996;DHT22;38556;47.068;15.408;2022-09-17T11:05:27;13.40;99.90
1996;DHT22;38556;47.068;15.408;2022-09-17T11:08:07;13.50;99.90
1996;DHT22;38556;47.068;15.408;2022-09-17T11:10:44;13.50;99.90
1996;DHT22;38556;47.068;15.408;2022-09-17T11:13:22;13.40;99.90
1996;DHT22;38556;47.068;15.408;2022-09-17T11:16:09;13.30;99.90
1996;DHT22;38556;47.068;15.408;2022-09-17T11:18:40;13.40;99.90
1996;DHT22;38556;47.068;15.408;2022-09-17T11:24:33;13.50;99.90
1996;DHT22;38556;47.068;15.408;2022-09-17T11:27:21;13.50;99.90
1996;DHT22;38556;47.068;15.408;2022-09-17T11:30:04;13.50;99.90
1996;DHT22;38556;47.068;15.408;2022-09-17T11:32:58;13.40;99.90
1996;DHT22;38556;47.068;15.408;2022-09-17T11:35:29;13.60;99.90
1996;DHT22;38556;47.068;15.408;2022-09-17T11:38:05;13.60;99.90
1996;DHT22;38556;47.068;15.408;2022-09-17T11:40:38;14.00;99.90
1996;DHT22;38556;47.068;15.408;2022-09-17T11:43:15;13.90;99.90
1996;DHT22;38556;47.068;15.408;2022-09-17T11:45:59;13.90;99.90
1996;DHT22;38556;47.068;15.408;2022-09-17T11:48:34;13.80;99.90
1996;DHT22;38556;47.068;15.408;2022-09-17T11:51:06;13.80;99.90
1996;DHT22;38556;47.068;15.408;2022-09-17T11:53:39;13.60;99.90
1996;DHT22;38556;47.068;15.408;2022-09-17T11:56:15;13.80;99.90
1996;DHT22;38556;47.068;15.408;2022-09-17T11:58:47;14.10;99.90
1996;DHT22;38556;47.068;15.408;2022-09-17T12:01:19;14.40;99.90
1996;DHT22;38556;47.068;15.408;2022-09-17T12:03:54;14.50;99.90
1996;DHT22;38556;47.068;15.408;2022-09-17T12:06:31;14.50;99.90
1996;DHT22;38556;47.068;15.408;2022-09-17T12:09:07;14.10;99.90
1996;DHT22;38556;47.068;15.408;2022-09-17T12:11:40;13.80;99.90
1996;DHT22;38556;47.068;15.408;2022-09-17T12:14:15;13.80;99.90
1996;DHT22;38556;47.068;15.408;2022-09-17T12:16:45;13.90;99.90
1996;DHT22;38556;47.068;15.408;2022-09-17T12:19:18;13.90;99.90
1996;DHT22;38556;47.068;15.408;2022-09-17T12:21:50;13.90;99.90
1996;DHT22;38556;47.068;15.408;2022-09-17T12:24:22;13.90;99.90
1996;DHT22;38556;47.068;15.408;2022-09-17T12:27:09;13.80;99.90
1996;DHT22;38556;47.068;15.408;2022-09-17T12:30:02;13.80;99.90
1996;DHT22;38556;47.068;15.408;2022-09-17T12:32:56;13.90;99.90
1996;DHT22;38556;47.068;15.408;2022-09-17T12:35:41;13.90;99.90
1996;DHT22;38556;47.068;15.408;2022-09-17T12:38:23;13.80;99.90
1996;DHT22;38556;47.068;15.408;2022-09-17T12:40:58;13.60;99.90
1996;DHT22;38556;47.068;15.408;2022-09-17T12:43:47;13.70;99.90
1996;DHT22;38556;47.068;15.408;2022-09-17T12:46:32;13.70;99.90
1996;DHT22;38556;47.068;15.408;2022-09-17T12:49:31;13.50;99.90
1996;DHT22;38556;47.068;15.408;2022-09-17T12:52:03;13.40;99.90
1996;DHT22;38556;47.068;15.408;2022-09-17T12:55:01;13.40;99.90
1996;DHT22;38556;47.068;15.408;2022-09-17T12:57:41;13.60;99.90
1996;DHT22;38556;47.068;15.408;2022-09-17T13:00:13;13.90;99.90
1996;DHT22;38556;47.068;15.408;2022-09-17T13:02:45;13.90;99.90
1996;DHT22;38556;47.068;15.408;2022-09-17T13:05:31;13.80;99.90
1996;DHT22;38556;47.068;15.408;2022-09-17T13:08:28;13.80;99.90
1996;DHT22;38556;47.068;15.408;2022-09-17T13:11:17;13.70;99.90
1996;DHT22;38556;47.068;15.408;2022-09-17T13:13:52;13.60;99.90
1996;DHT22;38556;47.068;15.408;2022-09-17T13:16:26;13.70;99.90
1996;DHT22;38556;47.068;15.408;2022-09-17T13:19:04;13.90;99.90
1996;DHT22;38556;47.068;15.408;2022-09-17T13:21:38;14.10;99.90
1996;DHT22;38556;47.068;15.408;2022-09-17T13:24:14;10.60;99.90
1996;DHT22;38556;47.068;15.408;2022-09-17T13:26:43;14.40;99.90
1996;DHT22;38556;47.068;15.408;2022-09-17T13:32:42;14.40;99.90
1996;DHT22;38556;47.068;15.408;2022-09-17T13:35:47;14.40;99.90
1996;DHT22;38556;47.068;15.408;2022-09-17T13:38:20;14.60;99.90
1996;DHT22;38556;47.068;15.408;2022-09-17T13:40:48;14.40;99.90
1996;DHT22;38556;47.068;15.408;2022-09-17T13:43:18;14.50;99.90
1996;DHT22;38556;47.068;15.408;2022-09-17T13:46:14;14.60;99.90
1996;DHT22;38556;47.068;15.408;2022-09-17T13:48:56;14.70;99.90
1996;DHT22;38556;47.068;15.408;2022-09-17T13:51:48;14.60;99.90
1996;DHT22;38556;47.068;15.408;2022-09-17T13:54:18;14.60;99.90
1996;DHT22;38556;47.068;15.408;2022-09-17T13:56:48;14.60;99.90
1996;DHT22;38556;47.068;15.408;2022-09-17T13:59:19;14.40;99.90
1996;DHT22;38556;47.068;15.408;2022-09-17T14:01:58;14.40;99.90
1996;DHT22;38556;47.068;15.408;2022-09-17T14:04:47;14.50;99.90
1996;DHT22;38556;47.068;15.408;2022-09-17T14:07:34;14.60;99.90
1996;DHT22;38556;47.068;15.408;2022-09-17T14:10:38;14.70;99.90
1996;DHT22;38556;47.068;15.408;2022-09-17T14:13:26;14.80;99.90
1996;DHT22;38556;47.068;15.408;2022-09-17T14:16:00;14.50;99.90
1996;DHT22;38556;47.068;15.408;2022-09-17T14:18:44;14.40;99.90
1996;DHT22;38556;47.068;15.408;2022-09-17T14:21:21;14.10;99.90
1996;DHT22;38556;47.068;15.408;2022-09-17T14:23:55;13.80;99.90
1996;DHT22;38556;47.068;15.408;2022-09-17T14:26:46;14.00;99.90
1996;DHT22;38556;47.068;15.408;2022-09-17T14:29:30;14.00;99.90
1996;DHT22;38556;47.068;15.408;2022-09-17T14:31:59;14.00;99.90
1996;DHT22;38556;47.068;15.408;2022-09-17T14:34:29;14.20;99.90
1996;DHT22;38556;47.068;15.408;2022-09-17T14:36:58;14.30;99.90
1996;DHT22;38556;47.068;15.408;2022-09-17T14:39:33;14.40;99.90
1996;DHT22;38556;47.068;15.408;2022-09-17T14:42:04;14.50;99.90
1996;DHT22;38556;47.068;15.408;2022-09-17T14:44:34;14.40;99.90
1996;DHT22;38556;47.068;15.408;2022-09-17T14:47:04;14.40;99.90
1996;DHT22;38556;47.068;15.408;2022-09-17T14:49:36;14.40;99.90
1996;DHT22;38556;47.068;15.408;2022-09-17T14:52:22;14.50;99.90
1996;DHT22;38556;47.068;15.408;2022-09-17T14:55:09;14.40;99.90
1996;DHT22;38556;47.068;15.408;2022-09-17T14:57:36;14.40;99.90
1996;DHT22;38556;47.068;15.408;2022-09-17T15:00:05;14.40;99.90
1996;DHT22;38556;47.068;15.408;2022-09-17T15:02:35;14.40;99.90
1996;DHT22;38556;47.068;15.408;2022-09-17T15:05:18;14.20;99.90
1996;DHT22;38556;47.068;15.408;2022-09-17T15:07:47;14.30;99.90
1996;DHT22;38556;47.068;15.408;2022-09-17T15:10:16;14.20;99.90
1996;DHT22;38556;47.068;15.408;2022-09-17T15:12:45;14.20;99.90
1996;DHT22;38556;47.068;15.408;2022-09-17T15:15:17;14.10;99.90
1996;DHT22;38556;47.068;15.408;2022-09-17T15:17:46;14.20;99.90
1996;DHT22;38556;47.068;15.408;2022-09-17T15:20:18;14.10;99.90
1996;DHT22;38556;47.068;15.408;2022-09-17T15:22:52;14.00;99.90
1996;DHT22;38556;47.068;15.408;2022-09-17T15:25:22;14.00;99.90
1996;DHT22;38556;47.068;15.408;2022-09-17T15:27:52;14.00;99.90
1996;DHT22;38556;47.068;15.408;2022-09-17T15:30:22;13.70;99.90
1996;DHT22;38556;47.068;15.408;2022-09-17T15:32:52;13.80;99.90
1996;DHT22;38556;47.068;15.408;2022-09-17T15:35:23;13.80;99.90
1996;DHT22;38556;47.068;15.408;2022-09-17T15:37:54;13.80;99.90
1996;DHT22;38556;47.068;15.408;2022-09-17T15:40:27;13.80;99.90
1996;DHT22;38556;47.068;15.408;2022-09-17T15:43:02;13.70;99.90
1996;DHT22;38556;47.068;15.408;2022-09-17T15:45:30;13.80;99.90
1996;DHT22;38556;47.068;15.408;2022-09-17T15:48:02;13.80;99.90
1996;DHT22;38556;47.068;15.408;2022-09-17T15:50:32;13.80;99.90
1996;DHT22;38556;47.068;15.408;2022-09-17T15:53:12;13.90;99.90
1996;DHT22;38556;47.068;15.408;2022-09-17T15:55:40;13.90;99.90
1996;DHT22;38556;47.068;15.408;2022-09-17T15:58:24;14.00;99.90
1996;DHT22;38556;47.068;15.408;2022-09-17T16:04:17;13.80;99.90
1996;DHT22;38556;47.068;15.408;2022-09-17T16:06:53;13.80;99.90
1996;DHT22;38556;47.068;15.408;2022-09-17T16:09:37;13.70;99.90
1996;DHT22;38556;47.068;15.408;2022-09-17T16:12:05;13.70;99.90
1996;DHT22;38556;47.068;15.408;2022-09-17T16:14:32;13.80;99.90
1996;DHT22;38556;47.068;15.408;2022-09-17T16:17:08;13.80;99.90
1996;DHT22;38556;47.068;15.408;2022-09-17T16:19:36;13.70;99.90
1996;DHT22;38556;47.068;15.408;2022-09-17T16:22:04;13.70;99.90
1996;DHT22;38556;47.068;15.408;2022-09-17T16:24:31;13.70;99.90
1996;DHT22;38556;47.068;15.408;2022-09-17T16:26:59;13.50;99.90
1996;DHT22;38556;47.068;15.408;2022-09-17T16:29:26;13.60;99.90
1996;DHT22;38556;47.068;15.408;2022-09-17T16:31:53;13.70;99.90
1996;DHT22;38556;47.068;15.408;2022-09-17T16:34:20;13.70;99.90
1996;DHT22;38556;47.068;15.408;2022-09-17T16:36:49;13.80;99.90
1996;DHT22;38556;47.068;15.408;2022-09-17T16:39:17;13.90;99.90
1996;DHT22;38556;47.068;15.408;2022-09-17T16:41:45;13.80;99.90
1996;DHT22;38556;47.068;15.408;2022-09-17T16:44:12;13.60;99.90